Pagina principală
METAR-TAF:

METAR-TAF

Aeroporturi :

Hammond Northshore Regional Airport

Hammond, Louisiana, Statele Unite ale Americii

Latitudine: 30-31-15N, longitudine: 090-25-03W, elevație: 13 m

Observații meteo curente

Raportul a fost făcut în urmă cu 29 de minute, la 22:35 UTC
Vânt 3 kt de la Sud
Temperatură 33°C
Umiditate 46%
Presiune 1015 hPa
Vizibilitate: 16.1 km
Cer senin

METAR: KHDC 222235Z AUTO 19003KT 10SM CLR 33/20 A2998 RMK AO2 T03250204

Ora: 18:04 (23:04 UTC)

Prognoză

Raportul a fost făcut în urmă cu 5 ore și 40 de minute, la 17:24 UTC
Prognoză valabilă de la 22 ora 18 UTC la 23 ora 18 UTC
Vânt 5 kt din direcții variabile
Vizibilitate: 10 km
Nori puțini la o înălțime de 3500 picior

TAF: KHDC 221724Z 2218/2318 VRB05KT P6SM FEW035

Observații și prognoze meteo pentru peste 4.000 de aeroporturi (rapoarte METAR și TAF).

Stațiile disponibile sunt reprezentate pe hartă prin puncte galbene și roșii.

Țineți indicatorul mouse-ului pe punctul dorit pentru a vedea denumirea stației.

Apoi, faceți clic pentru a vedea observațiile și prognozele meteorologice.

Pentru a schimba harta: Pentru mărire, faceți clic pe butoanele verzi cu cruce neagră; pentru micșorare, pe butonul verde cu o liniuță; pentru hărți învecinate, pe săgețile verzi.


METAR-TAF: